sensor_id;sensor_type;location;lat;lon;timestamp;temperature;humidity
76102;SHT30;64830;46.910;6.354;2023-12-29T00:01:19;7.72;67.56
76102;SHT30;64830;46.910;6.354;2023-12-29T00:03:44;7.70;67.63
76102;SHT30;64830;46.910;6.354;2023-12-29T00:06:10;7.70;67.66
76102;SHT30;64830;46.910;6.354;2023-12-29T00:08:38;7.70;67.83
76102;SHT30;64830;46.910;6.354;2023-12-29T00:11:04;7.69;67.83
76102;SHT30;64830;46.910;6.354;2023-12-29T00:13:30;7.70;67.95
76102;SHT30;64830;46.910;6.354;2023-12-29T00:15:55;7.69;68.32
76102;SHT30;64830;46.910;6.354;2023-12-29T00:18:21;7.65;68.33
76102;SHT30;64830;46.910;6.354;2023-12-29T00:20:47;7.66;68.48
76102;SHT30;64830;46.910;6.354;2023-12-29T00:23:13;7.63;68.46
76102;SHT30;64830;46.910;6.354;2023-12-29T00:25:39;7.61;68.74
76102;SHT30;64830;46.910;6.354;2023-12-29T00:28:05;7.63;68.91
76102;SHT30;64830;46.910;6.354;2023-12-29T00:30:30;7.58;69.81
76102;SHT30;64830;46.910;6.354;2023-12-29T00:32:56;7.55;69.28
76102;SHT30;64830;46.910;6.354;2023-12-29T00:35:21;7.56;69.40
76102;SHT30;64830;46.910;6.354;2023-12-29T00:37:47;7.56;69.41
76102;SHT30;64830;46.910;6.354;2023-12-29T00:40:12;7.58;69.48
76102;SHT30;64830;46.910;6.354;2023-12-29T00:42:38;7.56;69.34
76102;SHT30;64830;46.910;6.354;2023-12-29T00:45:04;7.55;70.03
76102;SHT30;64830;46.910;6.354;2023-12-29T00:47:30;7.58;69.89
76102;SHT30;64830;46.910;6.354;2023-12-29T00:49:56;7.59;69.95
76102;SHT30;64830;46.910;6.354;2023-12-29T00:52:21;7.61;70.02
76102;SHT30;64830;46.910;6.354;2023-12-29T00:54:47;7.63;70.51
76102;SHT30;64830;46.910;6.354;2023-12-29T00:57:12;7.63;70.63
76102;SHT30;64830;46.910;6.354;2023-12-29T00:59:38;7.66;71.20
76102;SHT30;64830;46.910;6.354;2023-12-29T01:02:06;7.68;71.15
76102;SHT30;64830;46.910;6.354;2023-12-29T01:04:32;7.72;71.71
76102;SHT30;64830;46.910;6.354;2023-12-29T01:06:57;7.75;71.66
76102;SHT30;64830;46.910;6.354;2023-12-29T01:09:22;7.79;71.83
76102;SHT30;64830;46.910;6.354;2023-12-29T01:11:48;7.80;71.67
76102;SHT30;64830;46.910;6.354;2023-12-29T01:14:13;7.83;72.40
76102;SHT30;64830;46.910;6.354;2023-12-29T01:16:40;7.86;71.97
76102;SHT30;64830;46.910;6.354;2023-12-29T01:19:05;7.87;71.78
76102;SHT30;64830;46.910;6.354;2023-12-29T01:21:30;7.89;71.95
76102;SHT30;64830;46.910;6.354;2023-12-29T01:24:02;7.93;71.98
76102;SHT30;64830;46.910;6.354;2023-12-29T01:26:30;7.94;72.52
76102;SHT30;64830;46.910;6.354;2023-12-29T01:28:55;7.94;73.06
76102;SHT30;64830;46.910;6.354;2023-12-29T01:31:20;7.98;72.80
76102;SHT30;64830;46.910;6.354;2023-12-29T01:33:46;8.00;73.92
76102;SHT30;64830;46.910;6.354;2023-12-29T01:36:20;7.98;73.68
76102;SHT30;64830;46.910;6.354;2023-12-29T01:38:45;8.01;74.61
76102;SHT30;64830;46.910;6.354;2023-12-29T01:41:11;8.00;74.12
76102;SHT30;64830;46.910;6.354;2023-12-29T01:46:25;8.01;75.04
76102;SHT30;64830;46.910;6.354;2023-12-29T01:48:51;7.98;75.12
76102;SHT30;64830;46.910;6.354;2023-12-29T01:51:17;8.00;75.16
76102;SHT30;64830;46.910;6.354;2023-12-29T01:53:45;7.96;75.31
76102;SHT30;64830;46.910;6.354;2023-12-29T01:56:10;7.97;75.47
76102;SHT30;64830;46.910;6.354;2023-12-29T01:58:36;7.96;76.30
76102;SHT30;64830;46.910;6.354;2023-12-29T02:01:03;7.93;75.83
76102;SHT30;64830;46.910;6.354;2023-12-29T02:03:29;7.96;76.37
76102;SHT30;64830;46.910;6.354;2023-12-29T02:05:55;7.93;76.78
76102;SHT30;64830;46.910;6.354;2023-12-29T02:08:23;7.93;76.46
76102;SHT30;64830;46.910;6.354;2023-12-29T02:10:49;7.90;77.59
76102;SHT30;64830;46.910;6.354;2023-12-29T02:13:14;7.89;77.13
76102;SHT30;64830;46.910;6.354;2023-12-29T02:15:40;7.89;77.49
76102;SHT30;64830;46.910;6.354;2023-12-29T02:18:07;7.87;77.20
76102;SHT30;64830;46.910;6.354;2023-12-29T02:20:34;7.87;77.68
76102;SHT30;64830;46.910;6.354;2023-12-29T02:22:59;7.86;77.37
76102;SHT30;64830;46.910;6.354;2023-12-29T02:25:26;7.85;77.68
76102;SHT30;64830;46.910;6.354;2023-12-29T02:28:30;7.83;77.79
76102;SHT30;64830;46.910;6.354;2023-12-29T02:31:02;7.86;78.11
76102;SHT30;64830;46.910;6.354;2023-12-29T02:33:32;7.82;78.26
76102;SHT30;64830;46.910;6.354;2023-12-29T02:36:01;7.82;78.04
76102;SHT30;64830;46.910;6.354;2023-12-29T02:38:28;7.82;78.46
76102;SHT30;64830;46.910;6.354;2023-12-29T02:40:58;7.82;78.39
76102;SHT30;64830;46.910;6.354;2023-12-29T02:43:24;7.79;80.16
76102;SHT30;64830;46.910;6.354;2023-12-29T02:45:49;7.76;78.98
76102;SHT30;64830;46.910;6.354;2023-12-29T02:48:15;7.76;78.58
76102;SHT30;64830;46.910;6.354;2023-12-29T02:50:40;7.79;78.76
76102;SHT30;64830;46.910;6.354;2023-12-29T02:53:06;7.77;78.73
76102;SHT30;64830;46.910;6.354;2023-12-29T02:55:31;7.80;79.48
76102;SHT30;64830;46.910;6.354;2023-12-29T02:57:57;7.77;79.11
76102;SHT30;64830;46.910;6.354;2023-12-29T03:00:22;7.77;79.19
76102;SHT30;64830;46.910;6.354;2023-12-29T03:02:48;7.77;79.37
76102;SHT30;64830;46.910;6.354;2023-12-29T03:05:14;7.79;79.17
76102;SHT30;64830;46.910;6.354;2023-12-29T03:07:40;7.80;79.49
76102;SHT30;64830;46.910;6.354;2023-12-29T03:10:06;7.77;79.60
76102;SHT30;64830;46.910;6.354;2023-12-29T03:12:32;7.79;79.57
76102;SHT30;64830;46.910;6.354;2023-12-29T03:14:57;7.79;79.57
76102;SHT30;64830;46.910;6.354;2023-12-29T03:17:23;7.82;79.75
76102;SHT30;64830;46.910;6.354;2023-12-29T03:19:48;7.79;80.26
76102;SHT30;64830;46.910;6.354;2023-12-29T03:22:13;7.79;80.16
76102;SHT30;64830;46.910;6.354;2023-12-29T03:24:40;7.77;80.07
76102;SHT30;64830;46.910;6.354;2023-12-29T03:27:06;7.80;80.20
76102;SHT30;64830;46.910;6.354;2023-12-29T03:29:32;7.79;80.52
76102;SHT30;64830;46.910;6.354;2023-12-29T03:31:57;7.80;80.35
76102;SHT30;64830;46.910;6.354;2023-12-29T03:34:22;7.80;80.54
76102;SHT30;64830;46.910;6.354;2023-12-29T03:36:48;7.83;80.73
76102;SHT30;64830;46.910;6.354;2023-12-29T03:39:13;7.82;80.68
76102;SHT30;64830;46.910;6.354;2023-12-29T03:41:39;7.83;80.82
76102;SHT30;64830;46.910;6.354;2023-12-29T03:44:04;7.85;80.74
76102;SHT30;64830;46.910;6.354;2023-12-29T03:46:31;7.85;80.79
76102;SHT30;64830;46.910;6.354;2023-12-29T03:48:57;7.86;81.03
76102;SHT30;64830;46.910;6.354;2023-12-29T03:51:22;7.86;81.06
76102;SHT30;64830;46.910;6.354;2023-12-29T03:53:48;7.86;80.94
76102;SHT30;64830;46.910;6.354;2023-12-29T03:56:15;7.87;80.81
76102;SHT30;64830;46.910;6.354;2023-12-29T03:58:41;7.87;80.80
76102;SHT30;64830;46.910;6.354;2023-12-29T04:01:13;7.90;81.06
76102;SHT30;64830;46.910;6.354;2023-12-29T04:03:39;7.90;81.32
76102;SHT30;64830;46.910;6.354;2023-12-29T04:06:06;7.86;81.77
76102;SHT30;64830;46.910;6.354;2023-12-29T04:08:35;7.86;81.49
76102;SHT30;64830;46.910;6.354;2023-12-29T04:11:01;7.87;81.83
76102;SHT30;64830;46.910;6.354;2023-12-29T04:13:27;7.87;81.95
76102;SHT30;64830;46.910;6.354;2023-12-29T04:15:52;7.87;81.78
76102;SHT30;64830;46.910;6.354;2023-12-29T04:18:20;7.86;81.82
76102;SHT30;64830;46.910;6.354;2023-12-29T04:20:46;7.87;82.31
76102;SHT30;64830;46.910;6.354;2023-12-29T04:23:12;7.87;82.27
76102;SHT30;64830;46.910;6.354;2023-12-29T04:25:37;7.85;82.21
76102;SHT30;64830;46.910;6.354;2023-12-29T04:28:03;7.85;82.10
76102;SHT30;64830;46.910;6.354;2023-12-29T04:30:29;7.85;82.08
76102;SHT30;64830;46.910;6.354;2023-12-29T04:32:54;7.83;82.42
76102;SHT30;64830;46.910;6.354;2023-12-29T04:35:19;7.85;82.06
76102;SHT30;64830;46.910;6.354;2023-12-29T04:37:45;7.85;82.34
76102;SHT30;64830;46.910;6.354;2023-12-29T04:40:15;7.83;82.18
76102;SHT30;64830;46.910;6.354;2023-12-29T04:42:40;7.85;82.08
76102;SHT30;64830;46.910;6.354;2023-12-29T04:45:06;7.85;81.97
76102;SHT30;64830;46.910;6.354;2023-12-29T04:47:32;7.86;81.91
76102;SHT30;64830;46.910;6.354;2023-12-29T04:49:58;7.90;81.90
76102;SHT30;64830;46.910;6.354;2023-12-29T04:52:23;7.87;81.64
76102;SHT30;64830;46.910;6.354;2023-12-29T04:54:49;7.91;81.74
76102;SHT30;64830;46.910;6.354;2023-12-29T04:57:14;7.93;81.86
76102;SHT30;64830;46.910;6.354;2023-12-29T04:59:39;7.94;81.82
76102;SHT30;64830;46.910;6.354;2023-12-29T05:02:05;7.94;81.99
76102;SHT30;64830;46.910;6.354;2023-12-29T05:04:31;7.93;81.91
76102;SHT30;64830;46.910;6.354;2023-12-29T05:06:56;7.94;82.03
76102;SHT30;64830;46.910;6.354;2023-12-29T05:09:22;7.94;82.25
76102;SHT30;64830;46.910;6.354;2023-12-29T05:11:47;7.94;82.32
76102;SHT30;64830;46.910;6.354;2023-12-29T05:14:13;7.98;82.02
76102;SHT30;64830;46.910;6.354;2023-12-29T05:16:38;7.98;82.20
76102;SHT30;64830;46.910;6.354;2023-12-29T05:19:03;7.98;82.19
76102;SHT30;64830;46.910;6.354;2023-12-29T05:21:29;8.00;82.22
76102;SHT30;64830;46.910;6.354;2023-12-29T05:23:56;8.00;82.15
76102;SHT30;64830;46.910;6.354;2023-12-29T05:26:21;8.01;82.13
76102;SHT30;64830;46.910;6.354;2023-12-29T05:28:46;8.04;82.35
76102;SHT30;64830;46.910;6.354;2023-12-29T05:31:12;8.05;82.30
76102;SHT30;64830;46.910;6.354;2023-12-29T05:33:37;8.04;82.07
76102;SHT30;64830;46.910;6.354;2023-12-29T05:36:07;8.05;82.43
76102;SHT30;64830;46.910;6.354;2023-12-29T05:38:33;8.05;82.23
76102;SHT30;64830;46.910;6.354;2023-12-29T05:40:59;8.07;82.20
76102;SHT30;64830;46.910;6.354;2023-12-29T05:43:26;8.07;82.21
76102;SHT30;64830;46.910;6.354;2023-12-29T05:45:52;8.11;82.26
76102;SHT30;64830;46.910;6.354;2023-12-29T05:48:17;8.08;82.29
76102;SHT30;64830;46.910;6.354;2023-12-29T05:50:42;8.11;82.15
76102;SHT30;64830;46.910;6.354;2023-12-29T05:53:08;8.11;82.15
76102;SHT30;64830;46.910;6.354;2023-12-29T05:55:33;8.11;82.18
76102;SHT30;64830;46.910;6.354;2023-12-29T05:57:59;8.11;82.27
76102;SHT30;64830;46.910;6.354;2023-12-29T06:00:25;8.10;82.28
76102;SHT30;64830;46.910;6.354;2023-12-29T06:02:50;8.05;82.56
76102;SHT30;64830;46.910;6.354;2023-12-29T06:05:16;8.05;82.70
76102;SHT30;64830;46.910;6.354;2023-12-29T06:07:41;8.01;82.63
76102;SHT30;64830;46.910;6.354;2023-12-29T06:10:07;8.00;82.89
76102;SHT30;64830;46.910;6.354;2023-12-29T06:12:34;7.97;83.21
76102;SHT30;64830;46.910;6.354;2023-12-29T06:14:59;7.93;83.16
76102;SHT30;64830;46.910;6.354;2023-12-29T06:17:25;7.90;83.60
76102;SHT30;64830;46.910;6.354;2023-12-29T06:19:50;7.91;83.04
76102;SHT30;64830;46.910;6.354;2023-12-29T06:22:16;7.87;83.26
76102;SHT30;64830;46.910;6.354;2023-12-29T06:24:41;7.90;83.18
76102;SHT30;64830;46.910;6.354;2023-12-29T06:27:10;7.91;83.29
76102;SHT30;64830;46.910;6.354;2023-12-29T06:29:36;7.91;83.43
76102;SHT30;64830;46.910;6.354;2023-12-29T06:32:02;7.93;83.11
76102;SHT30;64830;46.910;6.354;2023-12-29T06:34:28;7.93;83.34
76102;SHT30;64830;46.910;6.354;2023-12-29T06:36:53;7.89;83.53
76102;SHT30;64830;46.910;6.354;2023-12-29T06:39:19;7.87;83.57
76102;SHT30;64830;46.910;6.354;2023-12-29T06:41:44;7.87;83.30
76102;SHT30;64830;46.910;6.354;2023-12-29T06:44:10;7.86;83.59
76102;SHT30;64830;46.910;6.354;2023-12-29T06:46:38;7.87;83.31
76102;SHT30;64830;46.910;6.354;2023-12-29T06:49:04;7.83;83.21
76102;SHT30;64830;46.910;6.354;2023-12-29T06:51:32;7.85;83.39
76102;SHT30;64830;46.910;6.354;2023-12-29T06:53:58;7.85;83.15
76102;SHT30;64830;46.910;6.354;2023-12-29T06:56:23;7.82;83.66
76102;SHT30;64830;46.910;6.354;2023-12-29T06:58:48;7.80;83.54
76102;SHT30;64830;46.910;6.354;2023-12-29T07:01:15;7.79;83.65
76102;SHT30;64830;46.910;6.354;2023-12-29T07:03:41;7.76;83.77
76102;SHT30;64830;46.910;6.354;2023-12-29T07:06:06;7.75;84.00
76102;SHT30;64830;46.910;6.354;2023-12-29T07:08:32;7.72;83.85
76102;SHT30;64830;46.910;6.354;2023-12-29T07:10:58;7.69;83.76
76102;SHT30;64830;46.910;6.354;2023-12-29T07:13:23;7.69;83.80
76102;SHT30;64830;46.910;6.354;2023-12-29T07:15:49;7.72;83.88
76102;SHT30;64830;46.910;6.354;2023-12-29T07:18:15;7.72;83.92
76102;SHT30;64830;46.910;6.354;2023-12-29T07:20:41;7.69;84.13
76102;SHT30;64830;46.910;6.354;2023-12-29T07:23:07;7.69;83.84
76102;SHT30;64830;46.910;6.354;2023-12-29T07:25:32;7.72;83.99
76102;SHT30;64830;46.910;6.354;2023-12-29T07:27:57;7.73;83.92
76102;SHT30;64830;46.910;6.354;2023-12-29T07:30:23;7.76;83.92
76102;SHT30;64830;46.910;6.354;2023-12-29T07:32:48;7.73;83.88
76102;SHT30;64830;46.910;6.354;2023-12-29T07:35:14;7.75;83.86
76102;SHT30;64830;46.910;6.354;2023-12-29T07:37:46;7.77;83.55
76102;SHT30;64830;46.910;6.354;2023-12-29T07:40:12;7.79;83.55
76102;SHT30;64830;46.910;6.354;2023-12-29T07:42:39;7.85;83.40
76102;SHT30;64830;46.910;6.354;2023-12-29T07:45:06;7.87;83.32
76102;SHT30;64830;46.910;6.354;2023-12-29T07:47:32;7.90;83.11
76102;SHT30;64830;46.910;6.354;2023-12-29T07:49:57;7.93;83.00
76102;SHT30;64830;46.910;6.354;2023-12-29T07:52:23;7.96;82.84
76102;SHT30;64830;46.910;6.354;2023-12-29T07:54:48;7.98;82.62
76102;SHT30;64830;46.910;6.354;2023-12-29T07:57:14;7.98;82.25
76102;SHT30;64830;46.910;6.354;2023-12-29T07:59:40;8.03;82.27
76102;SHT30;64830;46.910;6.354;2023-12-29T08:02:05;8.05;82.15
76102;SHT30;64830;46.910;6.354;2023-12-29T08:04:31;8.07;81.83
76102;SHT30;64830;46.910;6.354;2023-12-29T08:06:56;8.13;81.74
76102;SHT30;64830;46.910;6.354;2023-12-29T08:09:21;8.14;81.79
76102;SHT30;64830;46.910;6.354;2023-12-29T08:11:47;8.20;81.74
76102;SHT30;64830;46.910;6.354;2023-12-29T08:14:13;8.24;81.65
76102;SHT30;64830;46.910;6.354;2023-12-29T08:16:39;8.25;81.53
76102;SHT30;64830;46.910;6.354;2023-12-29T08:19:05;8.31;81.62
76102;SHT30;64830;46.910;6.354;2023-12-29T08:21:31;8.30;81.33
76102;SHT30;64830;46.910;6.354;2023-12-29T08:23:57;8.34;81.57
76102;SHT30;64830;46.910;6.354;2023-12-29T08:26:22;8.31;81.71
76102;SHT30;64830;46.910;6.354;2023-12-29T08:28:48;8.32;81.83
76102;SHT30;64830;46.910;6.354;2023-12-29T08:31:14;8.32;81.70
76102;SHT30;64830;46.910;6.354;2023-12-29T08:33:40;8.34;81.65
76102;SHT30;64830;46.910;6.354;2023-12-29T08:36:06;8.31;81.49
76102;SHT30;64830;46.910;6.354;2023-12-29T08:38:31;8.37;81.38
76102;SHT30;64830;46.910;6.354;2023-12-29T08:40:57;8.32;81.11
76102;SHT30;64830;46.910;6.354;2023-12-29T08:43:23;8.38;81.18
76102;SHT30;64830;46.910;6.354;2023-12-29T08:45:48;8.42;81.22
76102;SHT30;64830;46.910;6.354;2023-12-29T08:48:14;8.46;81.12
76102;SHT30;64830;46.910;6.354;2023-12-29T08:50:39;8.48;81.09
76102;SHT30;64830;46.910;6.354;2023-12-29T08:53:05;8.50;80.94
76102;SHT30;64830;46.910;6.354;2023-12-29T08:55:30;8.53;80.98
76102;SHT30;64830;46.910;6.354;2023-12-29T08:57:57;8.56;80.97
76102;SHT30;64830;46.910;6.354;2023-12-29T09:00:22;8.59;80.70
76102;SHT30;64830;46.910;6.354;2023-12-29T09:02:48;8.60;80.74
76102;SHT30;64830;46.910;6.354;2023-12-29T09:05:13;8.62;80.76
76102;SHT30;64830;46.910;6.354;2023-12-29T09:07:39;8.66;80.81
76102;SHT30;64830;46.910;6.354;2023-12-29T09:10:05;8.65;80.77
76102;SHT30;64830;46.910;6.354;2023-12-29T09:12:33;8.65;81.17
76102;SHT30;64830;46.910;6.354;2023-12-29T09:14:59;8.60;80.88
76102;SHT30;64830;46.910;6.354;2023-12-29T09:17:24;8.65;80.74
76102;SHT30;64830;46.910;6.354;2023-12-29T09:19:50;8.65;80.77
76102;SHT30;64830;46.910;6.354;2023-12-29T09:22:15;8.67;80.68
76102;SHT30;64830;46.910;6.354;2023-12-29T09:24:41;8.67;80.70
76102;SHT30;64830;46.910;6.354;2023-12-29T09:27:08;8.69;80.70
76102;SHT30;64830;46.910;6.354;2023-12-29T09:29:34;8.72;80.84
76102;SHT30;64830;46.910;6.354;2023-12-29T09:31:59;8.76;80.70
76102;SHT30;64830;46.910;6.354;2023-12-29T09:34:25;8.77;80.61
76102;SHT30;64830;46.910;6.354;2023-12-29T09:36:50;8.79;80.43
76102;SHT30;64830;46.910;6.354;2023-12-29T09:39:16;8.81;80.31
76102;SHT30;64830;46.910;6.354;2023-12-29T09:41:44;8.87;80.37
76102;SHT30;64830;46.910;6.354;2023-12-29T09:44:14;8.90;80.45
76102;SHT30;64830;46.910;6.354;2023-12-29T09:46:42;8.94;80.55
76102;SHT30;64830;46.910;6.354;2023-12-29T09:49:08;9.00;80.38
76102;SHT30;64830;46.910;6.354;2023-12-29T09:51:36;9.05;80.43
76102;SHT30;64830;46.910;6.354;2023-12-29T09:54:03;9.11;80.48
76102;SHT30;64830;46.910;6.354;2023-12-29T09:56:28;9.18;80.19
76102;SHT30;64830;46.910;6.354;2023-12-29T09:58:54;9.22;80.12
76102;SHT30;64830;46.910;6.354;2023-12-29T10:01:21;9.25;80.09
76102;SHT30;64830;46.910;6.354;2023-12-29T10:03:48;9.31;79.90
76102;SHT30;64830;46.910;6.354;2023-12-29T10:06:19;9.32;79.71
76102;SHT30;64830;46.910;6.354;2023-12-29T10:08:46;9.34;79.83
76102;SHT30;64830;46.910;6.354;2023-12-29T10:11:15;9.40;79.79
76102;SHT30;64830;46.910;6.354;2023-12-29T10:13:43;9.50;79.67
76102;SHT30;64830;46.910;6.354;2023-12-29T10:16:42;9.62;79.44
76102;SHT30;64830;46.910;6.354;2023-12-29T10:22:08;9.89;79.17
76102;SHT30;64830;46.910;6.354;2023-12-29T10:24:35;9.97;78.86
76102;SHT30;64830;46.910;6.354;2023-12-29T10:27:01;10.01;78.71
76102;SHT30;64830;46.910;6.354;2023-12-29T10:29:27;10.04;78.64
76102;SHT30;64830;46.910;6.354;2023-12-29T10:31:53;10.07;78.50
76102;SHT30;64830;46.910;6.354;2023-12-29T10:34:20;10.11;78.24
76102;SHT30;64830;46.910;6.354;2023-12-29T10:36:51;10.04;77.57
76102;SHT30;64830;46.910;6.354;2023-12-29T10:39:16;10.00;78.10
76102;SHT30;64830;46.910;6.354;2023-12-29T10:41:42;10.02;78.34
76102;SHT30;64830;46.910;6.354;2023-12-29T10:44:09;10.12;78.57
76102;SHT30;64830;46.910;6.354;2023-12-29T10:46:34;10.24;78.42
76102;SHT30;64830;46.910;6.354;2023-12-29T10:49:07;10.29;77.92
76102;SHT30;64830;46.910;6.354;2023-12-29T10:51:36;10.31;77.93
76102;SHT30;64830;46.910;6.354;2023-12-29T10:54:02;10.34;77.62
76102;SHT30;64830;46.910;6.354;2023-12-29T10:56:29;10.32;77.64
76102;SHT30;64830;46.910;6.354;2023-12-29T10:59:05;10.28;77.77
76102;SHT30;64830;46.910;6.354;2023-12-29T11:01:36;10.31;78.18
76102;SHT30;64830;46.910;6.354;2023-12-29T11:04:06;10.28;78.13
76102;SHT30;64830;46.910;6.354;2023-12-29T11:06:42;10.28;77.47
76102;SHT30;64830;46.910;6.354;2023-12-29T11:09:10;10.21;77.81
76102;SHT30;64830;46.910;6.354;2023-12-29T11:11:37;10.21;77.86
76102;SHT30;64830;46.910;6.354;2023-12-29T11:14:03;10.21;77.76
76102;SHT30;64830;46.910;6.354;2023-12-29T11:16:29;10.15;77.52
76102;SHT30;64830;46.910;6.354;2023-12-29T11:18:58;10.15;77.65
76102;SHT30;64830;46.910;6.354;2023-12-29T11:21:26;10.14;77.89
76102;SHT30;64830;46.910;6.354;2023-12-29T11:23:53;10.12;77.85
76102;SHT30;64830;46.910;6.354;2023-12-29T11:26:18;10.12;77.53
76102;SHT30;64830;46.910;6.354;2023-12-29T11:28:46;10.11;76.85
76102;SHT30;64830;46.910;6.354;2023-12-29T11:31:15;10.10;76.89
76102;SHT30;64830;46.910;6.354;2023-12-29T11:33:45;10.07;77.25
76102;SHT30;64830;46.910;6.354;2023-12-29T11:36:18;10.11;77.71
76102;SHT30;64830;46.910;6.354;2023-12-29T11:39:02;10.21;77.32
76102;SHT30;64830;46.910;6.354;2023-12-29T11:44:08;10.52;77.41
76102;SHT30;64830;46.910;6.354;2023-12-29T11:46:40;10.56;76.25
76102;SHT30;64830;46.910;6.354;2023-12-29T11:49:08;10.53;76.34
76102;SHT30;64830;46.910;6.354;2023-12-29T11:51:46;10.56;76.71
76102;SHT30;64830;46.910;6.354;2023-12-29T11:54:26;10.56;76.63
76102;SHT30;64830;46.910;6.354;2023-12-29T11:56:53;10.60;76.48
76102;SHT30;64830;46.910;6.354;2023-12-29T11:59:23;10.67;75.96
76102;SHT30;64830;46.910;6.354;2023-12-29T12:01:52;10.67;75.65
76102;SHT30;64830;46.910;6.354;2023-12-29T12:07:17;10.89;75.37
76102;SHT30;64830;46.910;6.354;2023-12-29T12:09:43;10.97;75.38
76102;SHT30;64830;46.910;6.354;2023-12-29T12:12:09;11.00;75.51
76102;SHT30;64830;46.910;6.354;2023-12-29T12:17:46;10.97;74.90
76102;SHT30;64830;46.910;6.354;2023-12-29T12:20:15;10.90;75.63
76102;SHT30;64830;46.910;6.354;2023-12-29T12:22:43;10.91;75.92
76102;SHT30;64830;46.910;6.354;2023-12-29T12:25:11;10.83;75.42
76102;SHT30;64830;46.910;6.354;2023-12-29T12:27:38;10.80;76.00
76102;SHT30;64830;46.910;6.354;2023-12-29T12:30:04;10.76;76.19
76102;SHT30;64830;46.910;6.354;2023-12-29T12:32:30;10.73;76.51
76102;SHT30;64830;46.910;6.354;2023-12-29T12:34:56;10.65;76.80
76102;SHT30;64830;46.910;6.354;2023-12-29T12:37:26;10.56;77.40
76102;SHT30;64830;46.910;6.354;2023-12-29T12:39:52;10.50;77.91
76102;SHT30;64830;46.910;6.354;2023-12-29T12:42:19;10.41;78.17
76102;SHT30;64830;46.910;6.354;2023-12-29T12:44:56;10.36;79.19
76102;SHT30;64830;46.910;6.354;2023-12-29T12:47:34;10.25;79.51
76102;SHT30;64830;46.910;6.354;2023-12-29T12:50:01;10.15;79.83
76102;SHT30;64830;46.910;6.354;2023-12-29T12:52:31;10.05;79.78
76102;SHT30;64830;46.910;6.354;2023-12-29T12:54:57;9.97;80.76
76102;SHT30;64830;46.910;6.354;2023-12-29T12:57:22;9.86;81.45
76102;SHT30;64830;46.910;6.354;2023-12-29T12:59:50;9.70;82.02
76102;SHT30;64830;46.910;6.354;2023-12-29T13:02:16;9.65;83.18
76102;SHT30;64830;46.910;6.354;2023-12-29T13:04:42;9.57;82.66
76102;SHT30;64830;46.910;6.354;2023-12-29T13:07:08;9.53;83.67
76102;SHT30;64830;46.910;6.354;2023-12-29T13:09:36;9.49;83.72
76102;SHT30;64830;46.910;6.354;2023-12-29T13:12:28;9.49;83.73
76102;SHT30;64830;46.910;6.354;2023-12-29T13:15:04;9.45;83.87
76102;SHT30;64830;46.910;6.354;2023-12-29T13:17:30;9.43;83.67
76102;SHT30;64830;46.910;6.354;2023-12-29T13:19:56;9.45;84.22
76102;SHT30;64830;46.910;6.354;2023-12-29T13:22:23;9.42;84.24
76102;SHT30;64830;46.910;6.354;2023-12-29T13:24:48;9.39;84.43
76102;SHT30;64830;46.910;6.354;2023-12-29T13:27:14;9.36;83.86
76102;SHT30;64830;46.910;6.354;2023-12-29T13:29:41;9.32;84.68
76102;SHT30;64830;46.910;6.354;2023-12-29T13:32:22;9.29;84.41
76102;SHT30;64830;46.910;6.354;2023-12-29T13:35:08;9.29;84.32
76102;SHT30;64830;46.910;6.354;2023-12-29T13:40:35;9.31;84.79
76102;SHT30;64830;46.910;6.354;2023-12-29T13:43:02;9.25;84.38
76102;SHT30;64830;46.910;6.354;2023-12-29T13:45:30;9.17;84.63
76102;SHT30;64830;46.910;6.354;2023-12-29T13:47:57;9.08;84.79
76102;SHT30;64830;46.910;6.354;2023-12-29T13:50:23;9.05;84.75
76102;SHT30;64830;46.910;6.354;2023-12-29T13:52:49;9.01;84.64
76102;SHT30;64830;46.910;6.354;2023-12-29T13:55:22;9.01;85.00
76102;SHT30;64830;46.910;6.354;2023-12-29T13:57:48;8.94;85.04
76102;SHT30;64830;46.910;6.354;2023-12-29T14:02:48;8.91;84.93
76102;SHT30;64830;46.910;6.354;2023-12-29T14:08:23;8.86;84.98
76102;SHT30;64830;46.910;6.354;2023-12-29T14:10:49;8.86;85.21
76102;SHT30;64830;46.910;6.354;2023-12-29T14:13:16;8.79;85.35
76102;SHT30;64830;46.910;6.354;2023-12-29T14:15:43;8.73;85.67
76102;SHT30;64830;46.910;6.354;2023-12-29T14:20:34;8.69;85.90
76102;SHT30;64830;46.910;6.354;2023-12-29T14:23:06;8.70;85.69
76102;SHT30;64830;46.910;6.354;2023-12-29T14:25:35;8.72;86.10
76102;SHT30;64830;46.910;6.354;2023-12-29T14:28:14;8.69;85.97
76102;SHT30;64830;46.910;6.354;2023-12-29T14:30:40;8.70;85.61
76102;SHT30;64830;46.910;6.354;2023-12-29T14:33:05;8.72;85.65
76102;SHT30;64830;46.910;6.354;2023-12-29T14:35:31;8.73;85.55
76102;SHT30;64830;46.910;6.354;2023-12-29T14:37:57;8.75;85.43
76102;SHT30;64830;46.910;6.354;2023-12-29T14:40:22;8.76;85.43
76102;SHT30;64830;46.910;6.354;2023-12-29T14:42:47;8.80;85.29
76102;SHT30;64830;46.910;6.354;2023-12-29T14:45:13;8.81;85.11
76102;SHT30;64830;46.910;6.354;2023-12-29T14:47:39;8.86;85.03
76102;SHT30;64830;46.910;6.354;2023-12-29T14:50:05;8.93;84.81
76102;SHT30;64830;46.910;6.354;2023-12-29T14:52:30;8.97;84.70
76102;SHT30;64830;46.910;6.354;2023-12-29T14:54:55;9.03;84.45
76102;SHT30;64830;46.910;6.354;2023-12-29T14:57:21;9.04;84.08
76102;SHT30;64830;46.910;6.354;2023-12-29T14:59:46;9.08;83.74
76102;SHT30;64830;46.910;6.354;2023-12-29T15:02:12;9.04;83.72
76102;SHT30;64830;46.910;6.354;2023-12-29T15:04:37;9.04;83.65
76102;SHT30;64830;46.910;6.354;2023-12-29T15:07:03;9.05;83.54
76102;SHT30;64830;46.910;6.354;2023-12-29T15:09:29;9.08;83.41
76102;SHT30;64830;46.910;6.354;2023-12-29T15:11:55;9.07;83.14
76102;SHT30;64830;46.910;6.354;2023-12-29T15:14:21;9.07;83.34
76102;SHT30;64830;46.910;6.354;2023-12-29T15:16:46;9.07;83.30
76102;SHT30;64830;46.910;6.354;2023-12-29T15:19:12;9.08;83.26
76102;SHT30;64830;46.910;6.354;2023-12-29T15:21:38;9.05;82.87
76102;SHT30;64830;46.910;6.354;2023-12-29T15:24:04;9.03;82.76
76102;SHT30;64830;46.910;6.354;2023-12-29T15:26:30;9.00;82.89
76102;SHT30;64830;46.910;6.354;2023-12-29T15:28:55;9.01;82.89
76102;SHT30;64830;46.910;6.354;2023-12-29T15:31:22;9.00;82.71
76102;SHT30;64830;46.910;6.354;2023-12-29T15:33:49;8.99;82.69
76102;SHT30;64830;46.910;6.354;2023-12-29T15:36:14;8.99;82.50
76102;SHT30;64830;46.910;6.354;2023-12-29T15:38:45;8.96;82.56
76102;SHT30;64830;46.910;6.354;2023-12-29T15:41:11;8.94;82.57
76102;SHT30;64830;46.910;6.354;2023-12-29T15:43:36;8.93;82.46
76102;SHT30;64830;46.910;6.354;2023-12-29T15:46:02;8.94;82.66
76102;SHT30;64830;46.910;6.354;2023-12-29T15:48:27;8.94;82.84
76102;SHT30;64830;46.910;6.354;2023-12-29T15:50:53;8.96;82.80
76102;SHT30;64830;46.910;6.354;2023-12-29T15:53:18;8.97;82.86
76102;SHT30;64830;46.910;6.354;2023-12-29T15:55:43;9.00;82.87
76102;SHT30;64830;46.910;6.354;2023-12-29T15:58:09;9.03;82.98
76102;SHT30;64830;46.910;6.354;2023-12-29T16:00:34;9.03;82.77
76102;SHT30;64830;46.910;6.354;2023-12-29T16:03:00;9.03;82.87
76102;SHT30;64830;46.910;6.354;2023-12-29T16:05:25;9.03;82.83
76102;SHT30;64830;46.910;6.354;2023-12-29T16:07:51;9.04;82.72